createdAt,value
2022-10-28T00:00:32.977Z,100963.91
2022-10-28T00:03:40.915Z,100965.75
2022-10-28T00:06:42.565Z,100962.06
2022-10-28T00:09:44.263Z,100957.16
2022-10-28T00:12:47.349Z,100959.13
2022-10-28T00:15:48.947Z,100954.63
2022-10-28T00:18:53.762Z,100953.47
2022-10-28T00:21:55.417Z,100959.94
2022-10-28T00:24:57.058Z,100963.13
2022-10-28T00:28:00.055Z,100968.50
2022-10-28T00:31:06.790Z,100970.38
2022-10-28T00:34:11.569Z,100975.44
2022-10-28T00:37:13.213Z,100990.03
2022-10-28T00:40:14.817Z,100987.09
2022-10-28T00:43:40.323Z,100989.75
2022-10-28T00:46:45.829Z,100983.69
2022-10-28T00:49:49.607Z,100986.31
2022-10-28T00:52:56.024Z,100978.59
2022-10-28T00:56:00.592Z,100974.66
2022-10-28T00:59:06.868Z,100977.66
2022-10-28T01:02:08.650Z,100959.59
2022-10-28T01:05:11.783Z,100969.78
2022-10-28T01:08:14.119Z,100959.19
2022-10-28T01:11:32.398Z,100970.97
2022-10-28T01:14:47.011Z,100965.94
2022-10-28T01:17:57.320Z,100960.91
2022-10-28T01:21:31.551Z,100959.53
2022-10-28T01:24:54.508Z,100946.97
2022-10-28T01:28:17.766Z,100939.91
2022-10-28T01:31:39.501Z,100944.31
2022-10-28T01:34:52.938Z,100930.91
2022-10-28T01:38:22.414Z,100936.28
2022-10-28T01:41:33.664Z,100929.72
2022-10-28T01:44:42.064Z,100930.75
2022-10-28T01:47:50.518Z,100938.84
2022-10-28T01:50:57.443Z,100959.72
2022-10-28T01:54:02.789Z,100954.59
2022-10-28T01:57:05.506Z,100961.56
2022-10-28T02:00:08.195Z,100960.06
2022-10-28T02:03:17.917Z,100958.22
2022-10-28T02:06:22.543Z,100951.78
2022-10-28T02:09:29.673Z,100945.03
2022-10-28T02:12:33.859Z,100941.34
2022-10-28T02:15:43.514Z,100933.66
2022-10-28T02:18:53.078Z,100919.91
2022-10-28T02:22:05.432Z,100930.47
2022-10-28T02:25:13.422Z,100921.06
2022-10-28T02:28:20.769Z,100921.44
2022-10-28T02:31:27.016Z,100933.91
2022-10-28T02:34:33.770Z,100923.06
2022-10-28T02:37:38.978Z,100926.25
2022-10-28T02:40:42.232Z,100926.91
2022-10-28T02:43:46.064Z,100922.28
2022-10-28T02:46:51.154Z,100920.16
2022-10-28T02:49:59.259Z,100910.25
2022-10-28T02:53:05.585Z,100897.25
2022-10-28T02:56:09.637Z,100885.44
2022-10-28T02:59:12.879Z,100877.38
2022-10-28T03:02:14.531Z,100870.66
2022-10-28T03:05:17.611Z,100861.19
2022-10-28T03:08:19.339Z,100865.72
2022-10-28T03:11:20.936Z,100866.25
2022-10-28T03:14:22.703Z,100869.03
2022-10-28T03:17:24.390Z,100871.31
2022-10-28T03:20:27.361Z,100871.00
2022-10-28T03:23:28.998Z,100867.88
2022-10-28T03:26:30.613Z,100854.22
2022-10-28T03:29:32.272Z,100854.78
2022-10-28T03:32:34.073Z,100848.31
2022-10-28T03:35:37.157Z,100835.00
2022-10-28T03:38:38.831Z,100830.97
2022-10-28T03:41:40.432Z,100830.44
2022-10-28T03:44:42.042Z,100820.25
2022-10-28T03:47:43.672Z,100824.69
2022-10-28T03:50:46.622Z,100816.22
2022-10-28T03:53:48.275Z,100820.09
2022-10-28T03:56:49.882Z,100819.63
2022-10-28T03:59:51.613Z,100828.34
2022-10-28T04:02:53.769Z,100824.91
2022-10-28T04:05:56.902Z,100832.47
2022-10-28T04:08:58.725Z,100837.13
2022-10-28T04:12:00.409Z,100843.41
2022-10-28T04:15:02.170Z,100852.72
2022-10-28T04:18:04.136Z,100865.78
2022-10-28T04:21:07.770Z,100869.38
2022-10-28T04:24:09.751Z,100879.84
2022-10-28T04:27:11.469Z,100892.50
2022-10-28T04:30:14.344Z,100888.25
2022-10-28T04:33:16.257Z,100889.25
2022-10-28T04:36:19.268Z,100900.00
2022-10-28T04:39:21.018Z,100906.22
2022-10-28T04:42:23.509Z,100892.09
2022-10-28T04:45:25.256Z,100901.13
2022-10-28T04:48:26.991Z,100906.81
2022-10-28T04:51:29.952Z,100913.69
2022-10-28T04:54:31.728Z,100921.34
2022-10-28T04:57:33.365Z,100923.31
2022-10-28T05:00:35.373Z,100926.91
2022-10-28T05:03:36.987Z,100923.88
2022-10-28T05:06:39.909Z,100918.97
2022-10-28T05:09:41.660Z,100919.63
2022-10-28T05:12:43.613Z,100920.41
2022-10-28T05:15:47.482Z,100901.38
2022-10-28T05:18:49.567Z,100885.63
2022-10-28T05:21:52.539Z,100879.66
2022-10-28T05:24:54.319Z,100894.63
2022-10-28T05:27:58.372Z,100891.31
2022-10-28T05:31:00.070Z,100888.22
2022-10-28T05:34:01.760Z,100899.84
2022-10-28T05:37:04.772Z,100888.72
2022-10-28T05:40:07.780Z,100891.78
2022-10-28T05:43:10.266Z,100897.28
2022-10-28T05:46:11.855Z,100887.47
2022-10-28T05:49:13.446Z,100888.66
2022-10-28T05:52:16.424Z,100885.91
2022-10-28T05:55:20.112Z,100883.13
2022-10-28T05:58:21.850Z,100879.84
2022-10-28T06:01:23.574Z,100869.59
2022-10-28T06:04:25.225Z,100866.19
2022-10-28T06:07:30.428Z,100839.44
2022-10-28T06:10:32.123Z,100842.03
2022-10-28T06:13:32.271Z,100834.78
2022-10-28T06:16:34.037Z,100828.16
2022-10-28T06:19:35.705Z,100826.16
2022-10-28T06:22:45.817Z,100831.09
2022-10-28T06:25:47.662Z,100846.06
2022-10-28T06:28:49.303Z,100847.72
2022-10-28T06:31:50.975Z,100859.03
2022-10-28T06:34:52.680Z,100868.75
2022-10-28T06:37:56.497Z,100863.16
2022-10-28T06:40:58.291Z,100869.97
2022-10-28T06:44:00.430Z,100867.97
2022-10-28T06:47:03.570Z,100867.22
2022-10-28T06:50:06.027Z,100868.44
2022-10-28T06:53:09.140Z,100873.34
2022-10-28T06:56:11.090Z,100880.09
2022-10-28T06:59:12.890Z,100884.47
2022-10-28T07:02:15.789Z,100891.34
2022-10-28T07:05:17.496Z,100898.09
2022-10-28T07:08:20.716Z,100900.22
2022-10-28T07:11:22.638Z,100892.00
2022-10-28T07:14:24.374Z,100894.22
2022-10-28T07:17:26.623Z,100900.22
2022-10-28T07:20:29.334Z,100885.75
2022-10-28T07:23:32.946Z,100884.81
2022-10-28T07:26:34.598Z,100892.78
2022-10-28T07:29:36.246Z,100893.97
2022-10-28T07:32:37.877Z,100898.72
2022-10-28T07:35:39.605Z,100917.38
2022-10-28T07:38:42.804Z,100918.03
2022-10-28T07:41:44.977Z,100921.91
2022-10-28T07:44:46.674Z,100927.75
2022-10-28T07:47:48.276Z,100929.72
2022-10-28T07:50:49.926Z,100925.63
2022-10-28T07:53:53.002Z,100923.69
2022-10-28T07:56:54.904Z,100929.28
2022-10-28T07:59:56.671Z,100928.09
2022-10-28T08:02:58.335Z,100921.81
2022-10-28T08:06:00.556Z,100919.00
2022-10-28T08:09:03.816Z,100926.09
2022-10-28T08:12:06.302Z,100933.63
2022-10-28T08:15:10.449Z,100936.00
2022-10-28T08:18:12.109Z,100937.09
2022-10-28T08:21:15.075Z,100926.41
2022-10-28T08:24:18.115Z,100929.78
2022-10-28T08:27:19.809Z,100916.88
2022-10-28T08:30:21.491Z,100896.75
2022-10-28T08:33:23.162Z,100896.88
2022-10-28T08:36:24.965Z,100906.59
2022-10-28T08:39:27.983Z,100915.22
2022-10-28T08:42:38.945Z,100907.56
2022-10-28T08:45:49.854Z,100920.47
2022-10-28T08:48:51.503Z,100912.56
2022-10-28T08:51:57.023Z,100916.06
2022-10-28T08:55:04.548Z,100909.91
2022-10-28T08:58:11.976Z,100905.53
2022-10-28T09:01:22.273Z,100902.44
2022-10-28T09:04:37.679Z,100897.31
2022-10-28T09:07:39.259Z,100892.97
2022-10-28T09:10:59.907Z,100905.97
2022-10-28T09:14:13.181Z,100914.13
2022-10-28T09:17:18.306Z,100912.25
2022-10-28T09:20:26.332Z,100901.09
2022-10-28T09:23:30.984Z,100899.50
2022-10-28T09:26:41.759Z,100896.13
2022-10-28T09:29:53.978Z,100906.53
2022-10-28T09:33:06.685Z,100893.31
2022-10-28T09:36:13.168Z,100906.06
2022-10-28T09:39:18.373Z,100902.97
2022-10-28T09:42:26.998Z,100901.13
2022-10-28T09:45:32.231Z,100895.81
2022-10-28T09:48:36.945Z,100894.22
2022-10-28T09:51:46.244Z,100911.44
2022-10-28T09:54:50.848Z,100906.97
2022-10-28T09:57:54.159Z,100903.03
2022-10-28T10:00:57.041Z,100906.22
2022-10-28T10:03:58.938Z,100902.28
2022-10-28T10:07:04.502Z,100907.78
2022-10-28T10:10:12.912Z,100908.50
2022-10-28T10:13:19.866Z,100915.22
2022-10-28T10:16:33.480Z,100923.72
2022-10-28T10:20:01.634Z,100925.56
2022-10-28T10:23:23.044Z,100914.47
2022-10-28T10:26:24.749Z,100908.59
2022-10-28T10:29:28.720Z,100909.25
2022-10-28T10:32:32.057Z,100921.38
2022-10-28T10:35:36.786Z,100920.75
2022-10-28T10:38:46.286Z,100913.69
2022-10-28T10:41:48.058Z,100909.22
2022-10-28T10:44:59.489Z,100910.53
2022-10-28T10:48:12.750Z,100906.78
2022-10-28T10:51:22.195Z,100904.91
2022-10-28T10:54:25.814Z,100907.28
2022-10-28T10:57:28.242Z,100904.69
2022-10-28T11:00:35.873Z,100904.88
2022-10-28T11:03:46.139Z,100901.09
2022-10-28T11:06:49.746Z,100897.59
2022-10-28T11:09:51.798Z,100892.81
2022-10-28T11:12:55.803Z,100895.81
2022-10-28T11:16:02.973Z,100900.09
2022-10-28T11:19:19.375Z,100878.75
2022-10-28T11:22:35.130Z,100882.16
2022-10-28T11:25:40.710Z,100875.78
2022-10-28T11:29:07.468Z,100873.53
2022-10-28T11:32:23.418Z,100875.25
2022-10-28T11:35:40.166Z,100870.53
2022-10-28T11:39:10.756Z,100873.66
2022-10-28T11:42:25.554Z,100870.06
2022-10-28T11:45:33.723Z,100866.84
2022-10-28T11:48:59.222Z,100869.81
2022-10-28T11:52:15.557Z,100855.84
2022-10-28T11:55:27.873Z,100861.34
2022-10-28T11:58:40.837Z,100855.88
2022-10-28T12:01:52.055Z,100845.59
2022-10-28T12:05:03.179Z,100839.81
2022-10-28T12:08:17.528Z,100845.38
2022-10-28T12:11:28.499Z,100843.13
2022-10-28T12:14:39.993Z,100835.06
2022-10-28T12:17:48.036Z,100830.47
2022-10-28T12:20:57.674Z,100821.78
2022-10-28T12:24:00.360Z,100820.22
2022-10-28T12:27:13.790Z,100811.75
2022-10-28T12:30:22.005Z,100819.28
2022-10-28T12:33:29.546Z,100813.16
2022-10-28T12:36:37.211Z,100819.47
2022-10-28T12:39:44.403Z,100828.28
2022-10-28T12:42:50.297Z,100810.34
2022-10-28T12:45:54.958Z,100811.75
2022-10-28T12:49:04.486Z,100808.28
2022-10-28T12:52:20.007Z,100807.88
2022-10-28T12:55:31.736Z,100808.75
2022-10-28T12:58:38.366Z,100804.78
2022-10-28T13:01:41.129Z,100799.63
2022-10-28T13:04:43.036Z,100782.56
2022-10-28T13:08:01.704Z,100784.66
2022-10-28T13:11:37.996Z,100791.03
2022-10-28T13:14:59.566Z,100781.34
2022-10-28T13:18:23.061Z,100776.59
2022-10-28T13:21:54.015Z,100796.50
2022-10-28T13:25:06.385Z,100786.03
2022-10-28T13:28:13.478Z,100782.22
2022-10-28T13:31:16.222Z,100787.34
2022-10-28T13:34:20.698Z,100786.25
2022-10-28T13:37:25.498Z,100793.56
2022-10-28T13:41:05.125Z,100781.47
2022-10-28T13:44:46.831Z,100774.78
2022-10-28T13:47:48.508Z,100787.06
2022-10-28T13:50:50.284Z,100778.13
2022-10-28T13:53:56.751Z,100776.19
2022-10-28T13:57:06.248Z,100777.56
2022-10-28T14:00:35.449Z,100772.28
2022-10-28T14:03:37.323Z,100776.75
2022-10-28T14:06:39.145Z,100768.38
2022-10-28T14:09:42.998Z,100752.69
2022-10-28T14:12:47.992Z,100768.22
2022-10-28T14:16:18.365Z,100773.25
2022-10-28T14:19:22.976Z,100770.22
2022-10-28T14:22:30.579Z,100769.06
2022-10-28T14:26:00.199Z,100786.84
2022-10-28T14:29:28.041Z,100789.16
2022-10-28T14:32:50.284Z,100792.00
2022-10-28T14:36:12.239Z,100802.31
2022-10-28T14:39:24.022Z,100795.19
2022-10-28T14:42:41.399Z,100791.84
2022-10-28T14:45:59.661Z,100794.03
2022-10-28T14:49:04.092Z,100787.34
2022-10-28T14:52:08.713Z,100782.81
2022-10-28T14:55:22.029Z,100776.59
2022-10-28T14:58:27.371Z,100779.69
2022-10-28T15:01:39.238Z,100768.78
2022-10-28T15:04:44.794Z,100770.72
2022-10-28T15:07:47.702Z,100765.72
2022-10-28T15:10:50.034Z,100776.81
2022-10-28T15:13:53.336Z,100773.03
2022-10-28T15:16:55.718Z,100770.69
2022-10-28T15:20:00.310Z,100778.31
2022-10-28T15:23:13.671Z,100780.69
2022-10-28T15:26:16.751Z,100780.53
2022-10-28T15:29:18.502Z,100778.75
2022-10-28T15:32:31.782Z,100782.13
2022-10-28T15:35:39.233Z,100786.44
2022-10-28T15:38:42.351Z,100779.06
2022-10-28T15:41:45.602Z,100778.72
2022-10-28T15:44:47.240Z,100784.16
2022-10-28T15:47:49.110Z,100779.19
2022-10-28T15:51:13.836Z,100784.53
2022-10-28T15:54:19.708Z,100782.13
2022-10-28T15:57:23.364Z,100785.63
2022-10-28T16:00:27.647Z,100791.66
2022-10-28T16:03:42.149Z,100798.84
2022-10-28T16:06:46.270Z,100792.50
2022-10-28T16:09:50.170Z,100792.31
2022-10-28T16:12:51.907Z,100790.81
2022-10-28T16:15:57.532Z,100794.16
2022-10-28T16:19:06.049Z,100794.84
2022-10-28T16:22:12.018Z,100796.56
2022-10-28T16:25:15.227Z,100799.09
2022-10-28T16:28:25.036Z,100795.56
2022-10-28T16:31:29.991Z,100806.56
2022-10-28T16:34:31.755Z,100810.50
2022-10-28T16:37:34.902Z,100807.91
2022-10-28T16:40:52.481Z,100821.22
2022-10-28T16:43:55.694Z,100823.16
2022-10-28T16:46:57.412Z,100831.41
2022-10-28T16:49:59.244Z,100824.19
2022-10-28T16:53:02.250Z,100827.91
2022-10-28T16:56:04.299Z,100834.19
2022-10-28T16:59:07.172Z,100837.97
2022-10-28T17:02:15.072Z,100840.50
2022-10-28T17:05:20.373Z,100832.75
2022-10-28T17:08:48.973Z,100824.44
2022-10-28T17:11:44.967Z,100829.38
2022-10-28T17:14:46.821Z,100828.28
2022-10-28T17:17:49.988Z,100836.25
2022-10-28T17:20:58.666Z,100839.34
2022-10-28T17:24:01.714Z,100826.09
2022-10-28T17:27:04.241Z,100839.19
2022-10-28T17:30:07.875Z,100842.59
2022-10-28T17:33:09.614Z,100845.72
2022-10-28T17:36:11.308Z,100852.34
2022-10-28T17:39:18.682Z,100854.16
2022-10-28T17:42:22.573Z,100848.94
2022-10-28T17:45:24.307Z,100849.13
2022-10-28T17:48:25.929Z,100855.16
2022-10-28T17:51:27.557Z,100857.66
2022-10-28T17:54:30.579Z,100858.31
2022-10-28T17:57:32.302Z,100856.13
2022-10-28T18:00:34.173Z,100856.06
2022-10-28T18:03:39.023Z,100858.13
2022-10-28T18:06:40.875Z,100863.34
2022-10-28T18:09:44.028Z,100866.13
2022-10-28T18:12:49.739Z,100867.13
2022-10-28T18:15:51.387Z,100874.41
2022-10-28T18:18:54.063Z,100874.94
2022-10-28T18:21:55.828Z,100869.63
2022-10-28T18:24:58.846Z,100871.75
2022-10-28T18:28:00.558Z,100874.91
2022-10-28T18:31:03.007Z,100875.06
2022-10-28T18:34:04.875Z,100879.25
2022-10-28T18:37:08.636Z,100880.25
2022-10-28T18:40:12.433Z,100882.03
2022-10-28T18:43:14.581Z,100891.38
2022-10-28T18:46:16.205Z,100891.84
2022-10-28T18:49:17.888Z,100883.94
2022-10-28T18:52:19.655Z,100886.38
2022-10-28T18:55:22.734Z,100892.63
2022-10-28T18:58:25.827Z,100890.78
2022-10-28T19:01:28.611Z,100894.88
2022-10-28T19:04:30.382Z,100888.31
2022-10-28T19:07:32.043Z,100889.75
2022-10-28T19:10:35.043Z,100885.66
2022-10-28T19:13:38.317Z,100888.00
2022-10-28T19:16:41.304Z,100883.38
2022-10-28T19:19:43.759Z,100888.50
2022-10-28T19:22:45.531Z,100890.34
2022-10-28T19:25:55.679Z,100897.66
2022-10-28T19:28:57.588Z,100900.69
2022-10-28T19:31:59.405Z,100896.56
2022-10-28T19:35:01.020Z,100896.00
2022-10-28T19:38:02.868Z,100896.72
2022-10-28T19:41:07.881Z,100901.94
2022-10-28T19:44:09.525Z,100900.53
2022-10-28T19:47:11.157Z,100898.94
2022-10-28T19:50:13.069Z,100910.09
2022-10-28T19:53:14.715Z,100910.34
2022-10-28T19:56:19.772Z,100902.97
2022-10-28T19:59:21.942Z,100915.66
2022-10-28T20:02:23.655Z,100923.56
2022-10-28T20:05:25.349Z,100923.53
2022-10-28T20:08:27.044Z,100920.56
2022-10-28T20:11:32.904Z,100924.03
2022-10-28T20:14:34.659Z,100925.53
2022-10-28T20:17:36.412Z,100922.97
2022-10-28T20:20:38.023Z,100929.19
2022-10-28T20:23:39.944Z,100925.66
2022-10-28T20:26:43.036Z,100922.63
2022-10-28T20:29:44.735Z,100926.34
2022-10-28T20:32:46.389Z,100933.50
2022-10-28T20:35:48.020Z,100932.13
2022-10-28T20:38:53.295Z,100938.13
2022-10-28T20:41:56.577Z,100937.63
2022-10-28T20:44:58.253Z,100943.41
2022-10-28T20:47:59.985Z,100942.50
2022-10-28T20:51:02.369Z,100940.50
2022-10-28T20:54:04.359Z,100938.31
2022-10-28T20:57:07.321Z,100941.78
2022-10-28T21:00:10.367Z,100935.75
2022-10-28T21:03:12.208Z,100942.22
2022-10-28T21:06:16.836Z,100951.09
2022-10-28T21:09:18.499Z,100949.91
2022-10-28T21:12:21.514Z,100944.97
2022-10-28T21:15:23.190Z,100953.44
2022-10-28T21:18:25.444Z,100948.59
2022-10-28T21:21:27.939Z,100957.63
2022-10-28T21:24:30.425Z,100951.19
2022-10-28T21:27:34.211Z,100956.03
2022-10-28T21:30:35.810Z,100963.66
2022-10-28T21:33:38.462Z,100970.94
2022-10-28T21:36:40.135Z,100981.69
2022-10-28T21:39:41.817Z,100985.97
2022-10-28T21:42:49.259Z,100983.63
2022-10-28T21:45:51.889Z,100986.97
2022-10-28T21:48:53.820Z,100988.94
2022-10-28T21:51:55.515Z,100986.41
2022-10-28T21:54:57.183Z,100987.09
2022-10-28T21:58:00.244Z,100981.69
2022-10-28T22:01:03.721Z,100977.31
2022-10-28T22:04:05.624Z,100987.06
2022-10-28T22:07:07.416Z,100979.44
2022-10-28T22:10:09.364Z,100974.34
2022-10-28T22:13:12.357Z,100970.81
2022-10-28T22:16:15.825Z,100980.56
2022-10-28T22:19:17.516Z,100984.41
2022-10-28T22:22:19.165Z,100979.53
2022-10-28T22:25:20.831Z,100972.13
2022-10-28T22:28:23.743Z,100973.06
2022-10-28T22:31:27.292Z,100977.69
2022-10-28T22:34:29.063Z,100978.38
2022-10-28T22:37:30.681Z,100980.94
2022-10-28T22:40:32.399Z,100983.81
2022-10-28T22:43:35.699Z,100976.53
2022-10-28T22:46:37.423Z,100976.00
2022-10-28T22:49:40.028Z,100974.84
2022-10-28T22:52:41.687Z,100977.72
2022-10-28T22:55:43.527Z,100972.34
2022-10-28T22:58:46.718Z,100957.19
2022-10-28T23:01:48.485Z,100961.13
2022-10-28T23:04:50.353Z,100957.88
2022-10-28T23:07:52.779Z,100955.72
2022-10-28T23:10:54.451Z,100962.19
2022-10-28T23:13:57.531Z,100963.53
2022-10-28T23:16:59.713Z,100977.31
2022-10-28T23:20:01.317Z,100971.59
2022-10-28T23:23:03.514Z,100968.31
2022-10-28T23:26:05.616Z,100960.38
2022-10-28T23:29:08.776Z,100964.19
2022-10-28T23:32:10.368Z,100954.28
2022-10-28T23:35:12.056Z,100956.41
2022-10-28T23:38:16.455Z,100966.88
2022-10-28T23:41:19.349Z,100977.47
2022-10-28T23:44:22.401Z,100964.19
2022-10-28T23:47:24.000Z,100961.94
2022-10-28T23:50:25.673Z,100956.38
2022-10-28T23:56:30.450Z,100959.19
2022-10-28T23:59:33.429Z,100968.56
